^^
Your Local Weather - Clay, NY Station Historical Data
Daily Summary for February 6, 2017 Units:  Metric    English   Both
« Previous Day
Next Day »
Daily Weekly Monthly Yearly Custom
  High: Low: Average:
Temperature: -1.2 °C -5.9 °C -3.5 °C
Dew Point: -6.7 °C -11.6 °C -8.6 °C
Humidity: 75% 59% 68%
Wind Speed: 11.3km/h 0km/h 2.6km/h
Wind Gust: 32.2km/h - -
Wind- - South
Pressure: 1020.5 hPa 1014.1 hPa -
Precipitation: 0.25 mm    
Historical Graphs
 
 
Tabular Data for February 6, 2017
Time Temperature Dew Point Pressure Wind Wind Speed Wind Gust Humidity Rainfall Rate (Hourly) solar
00:04 -1.2 °C -7.3 °C 1014.1 hPa WNW 8 km/h 12.9 km/h 63% 0 mm 0 W/m2
00:10 -1.2 °C -7.4 °C 1014.4 hPa NW 8 km/h 8 km/h 63% 0 mm 0 W/m2
00:16 -1.3 °C -7.6 °C 1014.4 hPa WNW 6.4 km/h 9.7 km/h 62% 0 mm 0 W/m2
00:22 -1.3 °C -7.6 °C 1014.4 hPa NW 8 km/h 8 km/h 62% 0 mm 0 W/m2
00:28 -1.3 °C -7.6 °C 1014.4 hPa West 8 km/h 9.7 km/h 62% 0 mm 0 W/m2
00:34 -1.3 °C -7.8 °C 1014.4 hPa WNW 9.7 km/h 9.7 km/h 61% 0 mm 0 W/m2
00:40 -1.3 °C -7.8 °C 1014.4 hPa NW 9.7 km/h 9.7 km/h 61% 0 mm 0 W/m2
00:46 -1.3 °C -7.8 °C 1014.8 hPa WNW 9.7 km/h 19.3 km/h 61% 0 mm 0 W/m2
00:52 -1.3 °C -7.7 °C 1014.8 hPa NW 8 km/h 9.7 km/h 62% 0 mm 0 W/m2
00:58 -1.4 °C -7.7 °C 1015.1 hPa NNW 6.4 km/h 14.5 km/h 62% 0 mm 0 W/m2
01:04 -1.4 °C -7.6 °C 1015.1 hPa NW 8 km/h 11.3 km/h 63% 0 mm 0 W/m2
01:10 -1.4 °C -7.6 °C 1015.1 hPa WNW 8 km/h 8 km/h 63% 0 mm 0 W/m2
01:16 -1.6 °C -7.3 °C 1015.5 hPa NW 8 km/h 8 km/h 65% 0 mm 0 W/m2
01:22 -1.7 °C -7 °C 1015.5 hPa NNW 8 km/h 17.7 km/h 67% 0 mm 0 W/m2
01:28 -1.8 °C -6.8 °C 1015.8 hPa NNW 9.7 km/h 17.7 km/h 69% 0 mm 0 W/m2
01:34 -2.1 °C -6.8 °C 1015.8 hPa North 11.3 km/h 32.2 km/h 70% 0 mm 0 W/m2
01:40 -2.2 °C -6.9 °C 1016.1 hPa NNW 9.7 km/h 9.7 km/h 70% 0 mm 0 W/m2
01:46 -2.3 °C -7.3 °C 1016.1 hPa NW 9.7 km/h 12.9 km/h 69% 0 mm 0 W/m2
01:52 -2.4 °C -7.3 °C 1016.1 hPa WNW 8 km/h 11.3 km/h 69% 0 mm 0 W/m2
01:58 -2.6 °C -7.4 °C 1016.5 hPa NW 6.4 km/h 11.3 km/h 69% 0 mm 0 W/m2
02:04 -2.6 °C -7.5 °C 1016.5 hPa North 6.4 km/h 8 km/h 69% 0 mm 0 W/m2
02:10 -2.8 °C -7.7 °C 1016.5 hPa NW 8 km/h 11.3 km/h 69% 0 mm 0 W/m2
02:16 -2.8 °C -7.5 °C 1016.8 hPa NW 6.4 km/h 12.9 km/h 70% 0 mm 0 W/m2
02:22 -2.8 °C -7.6 °C 1016.8 hPa NW 8 km/h 8 km/h 70% 0 mm 0 W/m2
02:28 -2.9 °C -7.7 °C 1016.8 hPa NW 6.4 km/h 8 km/h 70% 0 mm 0 W/m2
02:34 -3.1 °C -7.9 °C 1016.8 hPa NW 6.4 km/h 17.7 km/h 69% 0 mm 0 W/m2
02:40 -3.2 °C -8.4 °C 1016.8 hPa NNW 8 km/h 14.5 km/h 67% 0 mm 0 W/m2
02:46 -3.3 °C -9 °C 1016.8 hPa NNW 8 km/h 14.5 km/h 65% 0 mm 0 W/m2
02:52 -3.4 °C -9.3 °C 1016.8 hPa NW 6.4 km/h 11.3 km/h 64% 0 mm 0 W/m2
02:58 -3.6 °C -9.4 °C 1016.8 hPa NW 6.4 km/h 11.3 km/h 64% 0 mm 0 W/m2
03:04 -3.6 °C -9.8 °C 1016.8 hPa NNW 6.4 km/h 9.7 km/h 62% 0 mm 0 W/m2
03:10 -3.7 °C -10.2 °C 1017.2 hPa NW 8 km/h 8 km/h 61% 0 mm 0 W/m2
03:16 -3.8 °C -10.4 °C 1017.2 hPa WNW 8 km/h 9.7 km/h 60% 0 mm 0 W/m2
03:22 -3.9 °C -10.5 °C 1017.5 hPa NW 8 km/h 8 km/h 60% 0 mm 0 W/m2
03:24 -3.9 °C -10.5 °C 1017.5 hPa NW 8 km/h 8 km/h 60% 0 mm 0 W/m2
03:30 -4 °C -10.6 °C 1017.5 hPa WNW 6.4 km/h 6.4 km/h 60% 0 mm 0 W/m2
03:36 -4.1 °C -10.7 °C 1017.8 hPa WNW 4.8 km/h 8 km/h 60% 0 mm 0 W/m2
03:42 -4.1 °C -10.7 °C 1017.5 hPa NW 4.8 km/h 6.4 km/h 60% 0 mm 0 W/m2
03:48 -4.2 °C -10.8 °C 1017.8 hPa NW 4.8 km/h 9.7 km/h 60% 0 mm 0 W/m2
03:54 -4.2 °C -10.6 °C 1017.8 hPa NW 4.8 km/h 4.8 km/h 61% 0 mm 0 W/m2
04:00 -4.2 °C -10.6 °C 1017.8 hPa NNW 3.2 km/h 3.2 km/h 61% 0 mm 0 W/m2
04:06 -4.3 °C -10.7 °C 1018.2 hPa NNW 3.2 km/h 3.2 km/h 61% 0 mm 0 W/m2
04:12 -4.3 °C -10.5 °C 1018.8 hPa NNW 3.2 km/h 4.8 km/h 62% 0 mm 0 W/m2
04:18 -4.3 °C -10.7 °C 1018.8 hPa NW 3.2 km/h 4.8 km/h 61% 0 mm 0 W/m2
04:24 -4.3 °C -10.7 °C 1018.2 hPa NNW 3.2 km/h 4.8 km/h 61% 0 mm 0 W/m2
04:30 -4.4 °C -10.8 °C 1018.2 hPa NW 3.2 km/h 3.2 km/h 61% 0 mm 0 W/m2
04:36 -4.4 °C -11.1 °C 1018.2 hPa NNW 4.8 km/h 9.7 km/h 60% 0 mm 0 W/m2
04:42 -4.5 °C -11.3 °C 1018.2 hPa NW 4.8 km/h 4.8 km/h 59% 0 mm 0 W/m2
04:48 -4.6 °C -11.2 °C 1018.5 hPa WNW 4.8 km/h 4.8 km/h 60% 0 mm 0 W/m2
04:54 -4.6 °C -11.4 °C 1018.2 hPa WNW 3.2 km/h 8 km/h 59% 0 mm 0 W/m2
05:00 -4.7 °C -11.3 °C 1018.5 hPa WNW 3.2 km/h 8 km/h 60% 0 mm 0 W/m2
05:06 -4.7 °C -11.5 °C 1018.5 hPa NW 3.2 km/h 8 km/h 59% 0 mm 0 W/m2
05:12 -4.8 °C -11.6 °C 1018.5 hPa WNW 3.2 km/h 3.2 km/h 59% 0 mm 0 W/m2
05:18 -4.9 °C -11.4 °C 1018.2 hPa WNW 3.2 km/h 3.2 km/h 60% 0 mm 0 W/m2
05:24 -4.9 °C -11.3 °C 1018.5 hPa WNW 1.6 km/h 3.2 km/h 61% 0 mm 0 W/m2
05:36 -5.1 °C -11.4 °C 1018.2 hPa Calm     61% 0 mm 0 W/m2
05:42 -5.1 °C -11.5 °C 1018.2 hPa Calm   1.6 km/h 61% 0 mm 0 W/m2
05:48 -5.2 °C -11.3 °C 1018.2 hPa Calm   1.6 km/h 62% 0 mm 0 W/m2
05:54 -5.2 °C -11.2 °C 1018.2 hPa Calm     63% 0 mm 0 W/m2
06:00 -5.2 °C -11.2 °C 1018.5 hPa Calm     63% 0 mm 0 W/m2
06:06 -5.2 °C -11.4 °C 1018.2 hPa Calm   3.2 km/h 62% 0 mm 0 W/m2
06:12 -5.2 °C -11.2 °C 1018.2 hPa Calm     63% 0 mm 0 W/m2
06:18 -5.3 °C -11.2 °C 1018.5 hPa Calm     63% 0 mm 0 W/m2
06:24 -5.3 °C -11.3 °C 1018.5 hPa Calm     63% 0 mm 0 W/m2
06:30 -5.3 °C -10.9 °C 1018.8 hPa Calm     65% 0 mm 0 W/m2
06:36 -5.4 °C -10.9 °C 1018.5 hPa Calm     65% 0 mm 0 W/m2
06:42 -5.4 °C -11.1 °C 1018.5 hPa Calm   1.6 km/h 64% 0 mm 0 W/m2
06:48 -5.4 °C -11.2 °C 1018.8 hPa Calm   1.6 km/h 64% 0 mm 0 W/m2
06:54 -5.4 °C -11.2 °C 1018.8 hPa Calm     64% 0 mm 0 W/m2
07:00 -5.6 °C -11.5 °C 1018.8 hPa Calm     63% 0 mm 0 W/m2
07:06 -5.6 °C -11.3 °C 1019.2 hPa Calm     64% 0 mm 0 W/m2
07:12 -5.7 °C -11.4 °C 1019.2 hPa Calm     64% 0 mm 0 W/m2
07:18 -5.8 °C -11.6 °C 1019.2 hPa Calm     64% 0 mm 9 W/m2
07:24 -5.9 °C -11.4 °C 1019.5 hPa Calm     65% 0 mm 11 W/m2
07:30 -5.9 °C -11.3 °C 1019.5 hPa Calm     66% 0 mm 18 W/m2
07:36 -5.8 °C -11.4 °C 1019.5 hPa Calm     65% 0 mm 25 W/m2
07:42 -5.7 °C -11.4 °C 1019.5 hPa Calm     64% 0 mm 30 W/m2
07:48 -5.6 °C -11.1 °C 1019.9 hPa Calm   1.6 km/h 65% 0 mm 37 W/m2
07:54 -5.5 °C -11.1 °C 1019.9 hPa Calm   1.6 km/h 65% 0 mm 33 W/m2
08:00 -5.4 °C -11 °C 1019.9 hPa WNW 1.6 km/h 1.6 km/h 65% 0 mm 46 W/m2
08:06 -5.3 °C -11.1 °C 1019.9 hPa Calm   3.2 km/h 64% 0 mm 62 W/m2
08:12 -5.2 °C -11 °C 1019.9 hPa Calm   1.6 km/h 64% 0 mm 60 W/m2
08:18 -5.2 °C -10.9 °C 1019.9 hPa Calm   1.6 km/h 64% 0 mm 63 W/m2
08:24 -5.1 °C -10.8 °C 1019.9 hPa Calm   1.6 km/h 64% 0 mm 107 W/m2
08:30 -4.9 °C -10.7 °C 1020.5 hPa Calm     64% 0 mm 67 W/m2
08:36 -4.9 °C -10.7 °C 1020.2 hPa WNW 1.6 km/h 3.2 km/h 64% 0 mm 113 W/m2
08:42 -4.8 °C -10.6 °C 1020.2 hPa WNW 1.6 km/h 1.6 km/h 64% 0 mm 132 W/m2
08:48 -4.7 °C -10.5 °C 1019.9 hPa West 1.6 km/h 3.2 km/h 64% 0 mm 90 W/m2
08:54 -4.8 °C -10.6 °C 1019.9 hPa West 1.6 km/h 4.8 km/h 64% 0 mm 134 W/m2
09:00 -4.8 °C -10.6 °C 1020.2 hPa NNW 1.6 km/h 3.2 km/h 64% 0 mm 111 W/m2
09:06 -4.7 °C -10.4 °C 1020.2 hPa NNW 1.6 km/h 3.2 km/h 64% 0 mm 139 W/m2
09:12 -4.6 °C -10.6 °C 1020.2 hPa NNW 1.6 km/h 4.8 km/h 63% 0 mm 163 W/m2
09:18 -4.7 °C -10.4 °C 1020.5 hPa NNW 1.6 km/h 4.8 km/h 64% 0 mm 116 W/m2
09:24 -4.6 °C -10.6 °C 1019.9 hPa Calm   1.6 km/h 63% 0 mm 244 W/m2
09:30 -4.4 °C -10.4 °C 1019.9 hPa Calm     63% 0 mm 142 W/m2
09:36 -4.3 °C -10.3 °C 1020.2 hPa Calm     63% 0 mm 171 W/m2
09:42 -4.3 °C -10.1 °C 1020.2 hPa SW 1.6 km/h 3.2 km/h 64% 0 mm 237 W/m2
09:48 -4.4 °C -10 °C 1020.2 hPa WSW 3.2 km/h 4.8 km/h 65% 0 mm 128 W/m2
09:54 -4.6 °C -9.6 °C 1020.5 hPa WNW 3.2 km/h 3.2 km/h 68% 0 mm 188 W/m2
10:00 -4.6 °C -9.4 °C 1020.5 hPa WNW 1.6 km/h 1.6 km/h 69% 0 mm 220 W/m2
10:06 -4.3 °C -9.2 °C 1020.5 hPa Calm   1.6 km/h 69% 0 mm 251 W/m2
10:12 -4.3 °C -8.9 °C 1020.5 hPa WNW 1.6 km/h 1.6 km/h 70% 0 mm 214 W/m2
10:18 -4.3 °C -8.8 °C 1020.2 hPa Calm   1.6 km/h 71% 0 mm 250 W/m2
10:24 -4.1 °C -8.6 °C 1020.2 hPa Calm     71% 0 mm 250 W/m2
10:30 -4.1 °C -8.4 °C 1020.2 hPa Calm     72% 0 mm 330 W/m2
10:36 -4.4 °C -8.9 °C 1019.9 hPa Calm     71% 0 mm 132 W/m2
10:42 -4.7 °C -9 °C 1019.9 hPa Calm     72% 0 mm 190 W/m2
10:48 -4.1 °C -8.1 °C 1019.9 hPa Calm     74% 0 mm 265 W/m2
10:54 -4 °C -8.3 °C 1019.9 hPa Calm     72% 0 mm 207 W/m2
11:00 -3.9 °C -8.2 °C 1019.9 hPa Calm   1.6 km/h 72% 0 mm 311 W/m2
11:06 -4.4 °C -8.5 °C 1019.9 hPa Calm   3.2 km/h 73% 0 mm 415 W/m2
11:12 -3.9 °C -7.8 °C 1019.9 hPa Calm   1.6 km/h 74% 0 mm 513 W/m2
11:18 -3.4 °C -8.1 °C 1020.2 hPa WNW 1.6 km/h 3.2 km/h 70% 0 mm 250 W/m2
11:24 -3.9 °C -8.3 °C 1020.2 hPa WNW 1.6 km/h 1.6 km/h 72% 0 mm 265 W/m2
11:30 -3.9 °C -8.2 °C 1020.2 hPa WNW 1.6 km/h 1.6 km/h 72% 0 mm 239 W/m2
11:36 -3.9 °C -8.3 °C 1019.9 hPa Calm   1.6 km/h 72% 0 mm 188 W/m2
11:42 -4 °C -8.3 °C 1019.9 hPa Calm   3.2 km/h 72% 0 mm 202 W/m2
11:48 -4.1 °C -8.4 °C 1019.9 hPa WNW 1.6 km/h 3.2 km/h 72% 0 mm 218 W/m2
11:54 -4.2 °C -8.3 °C 1019.9 hPa WNW 1.6 km/h 1.6 km/h 73% 0 mm 211 W/m2
12:00 -4.1 °C -8.4 °C 1019.9 hPa WNW 1.6 km/h 1.6 km/h 72% 0 mm 221 W/m2
12:06 -3.8 °C -8.2 °C 1019.9 hPa Calm   1.6 km/h 72% 0 mm 276 W/m2
12:12 -3.8 °C -8.2 °C 1019.5 hPa Calm     72% 0 mm 216 W/m2
12:18 -3.4 °C -7.9 °C 1019.5 hPa Calm   1.6 km/h 71% 0 mm 232 W/m2
12:24 -3.6 °C -8.3 °C 1019.2 hPa Calm     70% 0 mm 276 W/m2
12:30 -3.6 °C -8.2 °C 1019.2 hPa Calm     70% 0 mm 290 W/m2
12:36 -3.2 °C -7.9 °C 1019.5 hPa Calm     70% 0 mm 271 W/m2
12:42 -3.6 °C -8.3 °C 1018.8 hPa WSW 1.6 km/h 3.2 km/h 70% 0 mm 250 W/m2
12:48 -3.2 °C -7.9 °C 1018.8 hPa WSW 1.6 km/h 3.2 km/h 70% 0 mm 239 W/m2
12:54 -3.3 °C -8.2 °C 1018.8 hPa Calm   1.6 km/h 69% 0 mm 260 W/m2
13:00 -3.1 °C -8 °C 1018.5 hPa Calm     69% 0 mm 241 W/m2
13:06 -3.1 °C -7.9 °C 1018.5 hPa SW 1.6 km/h 1.6 km/h 69% 0 mm 246 W/m2
13:12 -2.9 °C -8.2 °C 1018.5 hPa WSW 1.6 km/h 4.8 km/h 67% 0 mm 243 W/m2
13:18 -2.9 °C -8 °C 1018.5 hPa WSW 3.2 km/h 4.8 km/h 68% 0 mm 216 W/m2
13:24 -2.8 °C -8.1 °C 1018.2 hPa WSW 1.6 km/h 3.2 km/h 67% 0 mm 206 W/m2
13:30 -2.7 °C -8 °C 1018.5 hPa SSE 3.2 km/h 3.2 km/h 67% 0 mm 197 W/m2
13:36 -2.7 °C -8.2 °C 1018.2 hPa SSW 1.6 km/h 3.2 km/h 66% 0 mm 183 W/m2
13:42 -2.6 °C -8.1 °C 1017.8 hPa Calm   1.6 km/h 66% 0 mm 172 W/m2
13:48 -2.4 °C -8.3 °C 1018.2 hPa Calm   1.6 km/h 64% 0 mm 171 W/m2
13:54 -2.3 °C -8.2 °C 1017.8 hPa SSW 1.6 km/h 1.6 km/h 64% 0 mm 163 W/m2
14:00 -2.2 °C -8.1 °C 1017.8 hPa Calm   1.6 km/h 64% 0 mm 149 W/m2
14:06 -2.4 °C -7.9 °C 1017.8 hPa East 1.6 km/h 3.2 km/h 66% 0 mm 141 W/m2
14:12 -2.5 °C -8.2 °C 1017.8 hPa East 1.6 km/h 4.8 km/h 65% 0 mm 137 W/m2
14:18 -2.5 °C -8 °C 1017.8 hPa East 1.6 km/h 4.8 km/h 66% 0 mm 139 W/m2
14:26 -2.4 °C -8.1 °C 1017.8 hPa East 1.6 km/h 3.2 km/h 65% 0 mm 123 W/m2
14:32 -2.3 °C -8 °C 1017.8 hPa East 1.6 km/h 1.6 km/h 65% 0 mm 118 W/m2
14:38 -2.2 °C -7.9 °C 1017.5 hPa Calm   1.6 km/h 65% 0 mm 107 W/m2
14:44 -2.2 °C -7.9 °C 1017.8 hPa Calm     65% 0 mm 107 W/m2
14:50 -2.2 °C -7.9 °C 1017.8 hPa NE 1.6 km/h 3.2 km/h 65% 0 mm 95 W/m2
14:56 -2.2 °C -8.1 °C 1017.8 hPa NE 1.6 km/h 4.8 km/h 64% 0 mm 90 W/m2
15:02 -2.4 °C -7.5 °C 1017.8 hPa ENE 1.6 km/h 4.8 km/h 68% 0 mm 90 W/m2
15:08 -2.6 °C -7.3 °C 1017.5 hPa NE 3.2 km/h 4.8 km/h 70% 0 mm 88 W/m2
15:14 -2.7 °C -7.4 °C 1017.5 hPa ENE 3.2 km/h 3.2 km/h 70% 0 mm 84 W/m2
15:20 -2.7 °C -7.3 °C 1017.5 hPa ENE 3.2 km/h 3.2 km/h 71% 0 mm 81 W/m2
15:26 -2.8 °C -7.3 °C 1017.5 hPa East 3.2 km/h 4.8 km/h 71% 0 mm 70 W/m2
15:32 -2.9 °C -7.4 °C 1017.5 hPa East 3.2 km/h 4.8 km/h 71% 0 mm 60 W/m2
15:38 -2.9 °C -7.3 °C 1017.2 hPa ENE 3.2 km/h 4.8 km/h 72% 0 mm 54 W/m2
15:44 -3 °C -7.3 °C 1017.5 hPa NE 3.2 km/h 8 km/h 72% 0 mm 53 W/m2
15:50 -3 °C -7.3 °C 1017.5 hPa ENE 3.2 km/h 3.2 km/h 72% 0 mm 49 W/m2
15:56 -3 °C -7.2 °C 1017.5 hPa ENE 3.2 km/h 4.8 km/h 73% 0 mm 46 W/m2
16:02 -3 °C -7.3 °C 1017.5 hPa East 3.2 km/h 3.2 km/h 72% 0 mm 42 W/m2
16:08 -3.1 °C -7.4 °C 1017.5 hPa East 3.2 km/h 3.2 km/h 72% 0 mm 39 W/m2
16:14 -3 °C -7.3 °C 1017.8 hPa East 1.6 km/h 4.8 km/h 72% 0 mm 35 W/m2
16:20 -3.1 °C -7.3 °C 1017.5 hPa East 3.2 km/h 3.2 km/h 73% 0 mm 30 W/m2
16:28 -3.1 °C -7.1 °C 1017.5 hPa East 1.6 km/h 3.2 km/h 74% 0 mm 28 W/m2
16:34 -3.2 °C -7.3 °C 1017.5 hPa East 1.6 km/h 4.8 km/h 73% 0 mm 21 W/m2
16:40 -3.2 °C -7.2 °C 1017.5 hPa East 1.6 km/h 3.2 km/h 74% 0 mm 18 W/m2
16:46 -3.2 °C -7.4 °C 1017.5 hPa ENE 1.6 km/h 8 km/h 73% 0 mm 18 W/m2
16:52 -3.2 °C -7.3 °C 1017.5 hPa East 3.2 km/h 3.2 km/h 73% 0 mm 12 W/m2
16:58 -3.2 °C -7.3 °C 1017.5 hPa East 1.6 km/h 3.2 km/h 73% 0 mm 12 W/m2
17:04 -3.2 °C -7.3 °C 1017.5 hPa East 1.6 km/h 1.6 km/h 73% 0 mm 11 W/m2
17:10 -3.1 °C -7.3 °C 1017.5 hPa Calm     73% 0 mm 0 W/m2
17:16 -3.1 °C -7.3 °C 1017.2 hPa East 1.6 km/h 1.6 km/h 73% 0 mm 0 W/m2
17:22 -3.1 °C -7.3 °C 1017.2 hPa East 1.6 km/h 3.2 km/h 73% 0 mm 0 W/m2
17:28 -3.1 °C -7.3 °C 1016.8 hPa ESE 1.6 km/h 1.6 km/h 73% 0 mm 0 W/m2
17:34 -3.1 °C -7.3 °C 1016.8 hPa East 1.6 km/h 3.2 km/h 73% 0 mm 0 W/m2
17:40 -3.2 °C -7.3 °C 1016.8 hPa East 1.6 km/h 3.2 km/h 73% 0 mm 0 W/m2
17:46 -3.2 °C -7.3 °C 1017.2 hPa NNE 3.2 km/h 4.8 km/h 73% 0 mm 0 W/m2
17:52 -3.2 °C -7.3 °C 1017.2 hPa East 3.2 km/h 6.4 km/h 73% 0 mm 0 W/m2
17:58 -3.2 °C -7.5 °C 1016.8 hPa SE 3.2 km/h 4.8 km/h 72% 0 mm 0 W/m2
18:04 -3.2 °C -7.3 °C 1016.8 hPa ESE 1.6 km/h 1.6 km/h 73% 0 mm 0 W/m2
18:10 -3.2 °C -7.3 °C 1016.8 hPa SE 1.6 km/h 1.6 km/h 73% 0 mm 0 W/m2
18:16 -3.2 °C -7.3 °C 1016.8 hPa SE 1.6 km/h 1.6 km/h 73% 0 mm 0 W/m2
18:22 -3.2 °C -7.3 °C 1016.8 hPa SE 1.6 km/h 4.8 km/h 73% 0 mm 0 W/m2
18:28 -3.2 °C -7.3 °C 1016.8 hPa SE 1.6 km/h 4.8 km/h 73% 0 mm 0 W/m2
18:34 -3.2 °C -7.3 °C 1016.5 hPa SE 1.6 km/h 3.2 km/h 73% 0 mm 0 W/m2
18:40 -3.1 °C -7.3 °C 1016.8 hPa SE 1.6 km/h 1.6 km/h 73% 0 mm 0 W/m2
18:46 -3.1 °C -7.3 °C 1016.8 hPa Calm   3.2 km/h 73% 0 mm 0 W/m2
18:52 -3.1 °C -7.3 °C 1016.5 hPa Calm   1.6 km/h 73% 0 mm 0 W/m2
18:58 -3.1 °C -7.4 °C 1016.5 hPa East 1.6 km/h 4.8 km/h 72% 0 mm 0 W/m2
19:04 -3.1 °C -7.4 °C 1016.5 hPa East 1.6 km/h 1.6 km/h 72% 0 mm 0 W/m2
19:10 -3.1 °C -7.4 °C 1016.1 hPa East 1.6 km/h 1.6 km/h 72% 0 mm 0 W/m2
19:16 -3.1 °C -7.4 °C 1016.1 hPa East 1.6 km/h 3.2 km/h 72% 0 mm 0 W/m2
19:22 -3.1 °C -7.4 °C 1016.1 hPa East 1.6 km/h 1.6 km/h 72% 0 mm 0 W/m2
19:28 -3 °C -7.3 °C 1016.5 hPa East 1.6 km/h 3.2 km/h 72% 0 mm 0 W/m2
19:34 -3 °C -7.3 °C 1016.5 hPa East 1.6 km/h 3.2 km/h 72% 0 mm 0 W/m2
19:40 -3 °C -7.3 °C 1016.5 hPa East 1.6 km/h 1.6 km/h 72% 0 mm 0 W/m2
19:46 -2.9 °C -7.3 °C 1016.5 hPa East 1.6 km/h 1.6 km/h 72% 0 mm 0 W/m2
19:52 -2.9 °C -7.3 °C 1016.1 hPa East 1.6 km/h 1.6 km/h 72% 0 mm 0 W/m2
19:58 -2.9 °C -7.3 °C 1016.1 hPa East 1.6 km/h 4.8 km/h 72% 0 mm 0 W/m2
20:04 -2.9 °C -7.3 °C 1016.1 hPa ENE 1.6 km/h 6.4 km/h 72% 0 mm 0 W/m2
20:10 -2.9 °C -7.3 °C 1016.1 hPa East 1.6 km/h 1.6 km/h 72% 0 mm 0 W/m2
20:16 -2.9 °C -7.3 °C 1015.8 hPa ESE 1.6 km/h 4.8 km/h 72% 0 mm 0 W/m2
20:22 -2.9 °C -7.3 °C 1015.8 hPa ENE 1.6 km/h 6.4 km/h 72% 0 mm 0 W/m2
20:28 -2.9 °C -7.3 °C 1015.8 hPa ENE 3.2 km/h 6.4 km/h 72% 0 mm 0 W/m2
20:34 -2.9 °C -7.1 °C 1015.8 hPa ESE 3.2 km/h 3.2 km/h 73% 0 mm 0 W/m2
20:40 -2.9 °C -7.1 °C 1015.5 hPa ESE 3.2 km/h 3.2 km/h 73% 0 mm 0 W/m2
20:46 -2.9 °C -6.9 °C 1015.5 hPa ESE 3.2 km/h 6.4 km/h 74% 0 mm 0 W/m2
20:52 -3 °C -7.2 °C 1015.5 hPa ENE 3.2 km/h 3.2 km/h 73% 0 mm 0 W/m2
20:58 -2.9 °C -7.1 °C 1015.8 hPa ENE 1.6 km/h 4.8 km/h 73% 0 mm 0 W/m2
21:06 -2.9 °C -7.1 °C 1015.8 hPa SE 3.2 km/h 3.2 km/h 73% 0 mm 0 W/m2
21:12 -2.9 °C -6.9 °C 1015.5 hPa East 1.6 km/h 4.8 km/h 74% 0 mm 0 W/m2
21:18 -2.9 °C -7.1 °C 1015.5 hPa NE 3.2 km/h 4.8 km/h 73% 0 mm 0 W/m2
21:24 -2.9 °C -6.9 °C 1015.5 hPa ENE 3.2 km/h 3.2 km/h 74% 0 mm 0 W/m2
21:30 -2.9 °C -6.9 °C 1015.5 hPa ENE 1.6 km/h 3.2 km/h 74% 0 mm 0 W/m2
21:36 -2.9 °C -7.1 °C 1015.5 hPa NE 3.2 km/h 4.8 km/h 73% 0 mm 0 W/m2
21:42 -3 °C -7.2 °C 1015.5 hPa East 3.2 km/h 4.8 km/h 73% 0 mm 0 W/m2
21:48 -3 °C -7 °C 1015.5 hPa ENE 3.2 km/h 6.4 km/h 74% 0 mm 0 W/m2
21:54 -3 °C -7.2 °C 1015.5 hPa ESE 3.2 km/h 3.2 km/h 73% 0 mm 0 W/m2
22:00 -3 °C -7.2 °C 1015.5 hPa East 3.2 km/h 4.8 km/h 73% 0 mm 0 W/m2
22:06 -3 °C -7.2 °C 1015.5 hPa ENE 3.2 km/h 4.8 km/h 73% 0 mm 0 W/m2
22:12 -3.1 °C -7.2 °C 1015.1 hPa ENE 1.6 km/h 3.2 km/h 73% 0 mm 0 W/m2
22:18 -3.1 °C -7.2 °C 1015.1 hPa ESE 1.6 km/h 4.8 km/h 73% 0 mm 0 W/m2
22:24 -3.1 °C -7.2 °C 1015.1 hPa ESE 1.6 km/h 3.2 km/h 73% 0 mm 0 W/m2
22:30 -3.1 °C -7.2 °C 1015.1 hPa East 1.6 km/h 1.6 km/h 73% 0 mm 0 W/m2
22:36 -3.1 °C -7.1 °C 1015.1 hPa East 1.6 km/h 3.2 km/h 74% 0 mm 0 W/m2
22:42 -3 °C -7.2 °C 1015.5 hPa ENE 1.6 km/h 1.6 km/h 73% 0 mm 0 W/m2
22:48 -2.9 °C -7.1 °C 1015.1 hPa East 1.6 km/h 4.8 km/h 73% 0 mm 0 W/m2
22:54 -2.9 °C -6.9 °C 1015.1 hPa East 1.6 km/h 1.6 km/h 74% 0 mm 0 W/m2
23:00 -2.9 °C -6.9 °C 1015.1 hPa Calm     74% 0 mm 0 W/m2
23:06 -2.9 °C -6.8 °C 1015.1 hPa Calm     75% 0 mm 0 W/m2
23:12 -2.9 °C -6.9 °C 1015.1 hPa ENE 1.6 km/h 3.2 km/h 74% 0 mm 0 W/m2
23:18 -2.9 °C -6.8 °C 1015.1 hPa East 3.2 km/h 4.8 km/h 75% 0 mm 0 W/m2
23:24 -2.9 °C -6.8 °C 1015.1 hPa East 3.2 km/h 4.8 km/h 75% 0 mm 0 W/m2
23:30 -2.9 °C -6.8 °C 1015.1 hPa NE 3.2 km/h 3.2 km/h 75% 0 mm 0 W/m2
23:36 -2.9 °C -6.7 °C 1015.1 hPa NE 1.6 km/h 3.2 km/h 75% 0 mm 0 W/m2
23:42 -2.9 °C -6.7 °C 1015.1 hPa NE 3.2 km/h 3.2 km/h 75% 0 mm 0 W/m2
23:48 -2.9 °C -6.7 °C 1014.8 hPa ENE 4.8 km/h 8 km/h 75% 0 mm 0 W/m2
23:54 -2.9 °C -6.7 °C 1014.8 hPa East 3.2 km/h 6.4 km/h 75% 0 mm 0 W/m2
Country Meadow, Clay, NY, USA
Compliments of Weather Underground - 2 mb